Parrish, Wisconsin
Current Conditions -  °F | °C
As of 2:55 PM on Thursday 23 Oct 2014 (Local Time) from KRRL Reporting Station
Overcast Overcast  
Wind Chill: 46°   Ceiling: 500
Heat Index: 46°   Visibility: 7mi
Dew Point: 45°   Wind: 3mph
Humidity: 97%   Direction: 200°SSW
Pressure: 30.02"   Gusts: NA
Location:  45.3595°N, 89.45°W
Report Text: KRRL 231955Z AUTO 20003KT 7SM OVC005 08/07 A3002 RMK AO2 T00750071
Loading
Personal Weather Stations






























Interactive Weather Map
Tropical Storm Tracking
New forecast layout! Learn more

10-Day Weather Forecast

Advertisements
Track Severe Weather on mobile